sensor_id;sensor_type;location;lat;lon;timestamp;P1;durP1;ratioP1;P2;durP2;ratioP2
73107;SDS011;61559;50.476;15.588;2023-08-01T00:00:31;2.10;;;1.90;;
73107;SDS011;61559;50.476;15.588;2023-08-01T00:03:22;4.60;;;2.30;;
73107;SDS011;61559;50.476;15.588;2023-08-01T00:05:53;2.80;;;2.10;;
73107;SDS011;61559;50.476;15.588;2023-08-01T00:08:24;4.10;;;2.10;;
73107;SDS011;61559;50.476;15.588;2023-08-01T00:10:56;5.10;;;2.40;;
73107;SDS011;61559;50.476;15.588;2023-08-01T00:13:26;4.40;;;2.20;;
73107;SDS011;61559;50.476;15.588;2023-08-01T00:15:58;2.30;;;1.90;;
73107;SDS011;61559;50.476;15.588;2023-08-01T00:18:35;3.70;;;2.40;;
73107;SDS011;61559;50.476;15.588;2023-08-01T00:21:06;5.50;;;2.50;;
73107;SDS011;61559;50.476;15.588;2023-08-01T00:23:39;4.60;;;2.70;;
73107;SDS011;61559;50.476;15.588;2023-08-01T00:26:10;5.50;;;2.60;;
73107;SDS011;61559;50.476;15.588;2023-08-01T00:28:42;5.70;;;2.90;;
73107;SDS011;61559;50.476;15.588;2023-08-01T00:31:13;3.30;;;2.30;;
73107;SDS011;61559;50.476;15.588;2023-08-01T00:33:44;3.90;;;2.20;;
73107;SDS011;61559;50.476;15.588;2023-08-01T00:36:15;3.30;;;2.70;;
73107;SDS011;61559;50.476;15.588;2023-08-01T00:38:47;3.90;;;2.20;;
73107;SDS011;61559;50.476;15.588;2023-08-01T00:41:18;3.90;;;2.50;;
73107;SDS011;61559;50.476;15.588;2023-08-01T00:43:49;4.70;;;2.20;;
73107;SDS011;61559;50.476;15.588;2023-08-01T00:46:22;4.80;;;2.40;;
73107;SDS011;61559;50.476;15.588;2023-08-01T00:48:54;6.10;;;2.70;;
73107;SDS011;61559;50.476;15.588;2023-08-01T00:51:28;6.00;;;2.80;;
73107;SDS011;61559;50.476;15.588;2023-08-01T00:54:01;8.70;;;2.60;;
73107;SDS011;61559;50.476;15.588;2023-08-01T00:56:32;3.00;;;2.40;;
73107;SDS011;61559;50.476;15.588;2023-08-01T00:59:04;3.20;;;2.40;;
73107;SDS011;61559;50.476;15.588;2023-08-01T01:01:35;2.70;;;2.30;;
73107;SDS011;61559;50.476;15.588;2023-08-01T01:04:07;5.80;;;2.30;;
73107;SDS011;61559;50.476;15.588;2023-08-01T01:06:39;6.90;;;2.60;;
73107;SDS011;61559;50.476;15.588;2023-08-01T01:09:16;8.10;;;2.90;;
73107;SDS011;61559;50.476;15.588;2023-08-01T01:11:48;4.10;;;2.70;;
73107;SDS011;61559;50.476;15.588;2023-08-01T01:14:19;4.40;;;2.40;;
73107;SDS011;61559;50.476;15.588;2023-08-01T01:16:50;5.30;;;2.60;;
73107;SDS011;61559;50.476;15.588;2023-08-01T01:19:21;4.90;;;2.50;;
73107;SDS011;61559;50.476;15.588;2023-08-01T01:21:53;4.00;;;2.20;;
73107;SDS011;61559;50.476;15.588;2023-08-01T01:24:25;5.60;;;2.50;;
73107;SDS011;61559;50.476;15.588;2023-08-01T01:26:58;5.10;;;2.70;;
73107;SDS011;61559;50.476;15.588;2023-08-01T01:29:32;3.60;;;2.40;;
73107;SDS011;61559;50.476;15.588;2023-08-01T01:32:05;4.90;;;2.30;;
73107;SDS011;61559;50.476;15.588;2023-08-01T01:34:38;4.20;;;2.30;;
73107;SDS011;61559;50.476;15.588;2023-08-01T01:37:09;6.10;;;2.30;;
73107;SDS011;61559;50.476;15.588;2023-08-01T01:39:40;4.70;;;2.60;;
73107;SDS011;61559;50.476;15.588;2023-08-01T01:42:11;2.70;;;2.20;;
73107;SDS011;61559;50.476;15.588;2023-08-01T01:44:42;3.20;;;2.20;;
73107;SDS011;61559;50.476;15.588;2023-08-01T01:47:14;4.40;;;2.30;;
73107;SDS011;61559;50.476;15.588;2023-08-01T01:50:06;3.40;;;2.50;;
73107;SDS011;61559;50.476;15.588;2023-08-01T01:52:38;3.70;;;2.50;;
73107;SDS011;61559;50.476;15.588;2023-08-01T01:55:09;3.60;;;2.40;;
73107;SDS011;61559;50.476;15.588;2023-08-01T01:57:40;3.40;;;2.10;;
73107;SDS011;61559;50.476;15.588;2023-08-01T02:00:12;4.10;;;2.30;;
73107;SDS011;61559;50.476;15.588;2023-08-01T02:02:44;4.90;;;2.40;;
73107;SDS011;61559;50.476;15.588;2023-08-01T02:05:15;6.60;;;2.50;;
73107;SDS011;61559;50.476;15.588;2023-08-01T02:07:46;5.00;;;2.70;;
73107;SDS011;61559;50.476;15.588;2023-08-01T02:10:17;3.70;;;2.50;;
73107;SDS011;61559;50.476;15.588;2023-08-01T02:12:48;4.80;;;2.50;;
73107;SDS011;61559;50.476;15.588;2023-08-01T02:15:20;7.30;;;2.80;;
73107;SDS011;61559;50.476;15.588;2023-08-01T02:17:51;5.20;;;2.50;;
73107;SDS011;61559;50.476;15.588;2023-08-01T02:20:22;7.90;;;3.00;;
73107;SDS011;61559;50.476;15.588;2023-08-01T02:22:53;5.70;;;2.50;;
73107;SDS011;61559;50.476;15.588;2023-08-01T02:25:24;5.50;;;2.60;;
73107;SDS011;61559;50.476;15.588;2023-08-01T02:27:56;4.20;;;2.20;;
73107;SDS011;61559;50.476;15.588;2023-08-01T02:30:28;5.60;;;2.70;;
73107;SDS011;61559;50.476;15.588;2023-08-01T02:33:00;4.60;;;2.60;;
73107;SDS011;61559;50.476;15.588;2023-08-01T02:35:31;4.30;;;2.30;;
73107;SDS011;61559;50.476;15.588;2023-08-01T02:38:03;3.70;;;2.30;;
73107;SDS011;61559;50.476;15.588;2023-08-01T02:40:34;5.30;;;2.40;;
73107;SDS011;61559;50.476;15.588;2023-08-01T02:43:05;5.10;;;2.80;;
73107;SDS011;61559;50.476;15.588;2023-08-01T02:45:36;4.30;;;2.40;;
73107;SDS011;61559;50.476;15.588;2023-08-01T02:48:07;4.80;;;2.30;;
73107;SDS011;61559;50.476;15.588;2023-08-01T02:50:39;5.60;;;2.70;;
73107;SDS011;61559;50.476;15.588;2023-08-01T02:53:10;6.00;;;3.00;;
73107;SDS011;61559;50.476;15.588;2023-08-01T02:55:41;8.90;;;3.10;;
73107;SDS011;61559;50.476;15.588;2023-08-01T02:58:14;5.10;;;2.50;;
73107;SDS011;61559;50.476;15.588;2023-08-01T03:00:45;4.60;;;2.40;;
73107;SDS011;61559;50.476;15.588;2023-08-01T03:03:17;3.20;;;2.40;;
73107;SDS011;61559;50.476;15.588;2023-08-01T03:05:48;5.60;;;2.50;;
73107;SDS011;61559;50.476;15.588;2023-08-01T03:08:19;5.20;;;2.60;;
73107;SDS011;61559;50.476;15.588;2023-08-01T03:10:50;4.40;;;2.50;;
73107;SDS011;61559;50.476;15.588;2023-08-01T03:13:23;5.00;;;2.50;;
73107;SDS011;61559;50.476;15.588;2023-08-01T03:15:54;5.40;;;2.30;;
73107;SDS011;61559;50.476;15.588;2023-08-01T03:18:25;4.90;;;2.80;;
73107;SDS011;61559;50.476;15.588;2023-08-01T03:20:57;5.40;;;3.10;;
73107;SDS011;61559;50.476;15.588;2023-08-01T03:23:29;4.50;;;2.50;;
73107;SDS011;61559;50.476;15.588;2023-08-01T03:26:00;3.50;;;2.40;;
73107;SDS011;61559;50.476;15.588;2023-08-01T03:28:31;3.70;;;2.60;;
73107;SDS011;61559;50.476;15.588;2023-08-01T03:31:03;3.90;;;2.50;;
73107;SDS011;61559;50.476;15.588;2023-08-01T03:33:34;3.70;;;2.30;;
73107;SDS011;61559;50.476;15.588;2023-08-01T03:36:05;6.40;;;2.50;;
73107;SDS011;61559;50.476;15.588;2023-08-01T03:38:36;6.10;;;2.60;;
73107;SDS011;61559;50.476;15.588;2023-08-01T03:41:07;7.10;;;2.50;;
73107;SDS011;61559;50.476;15.588;2023-08-01T03:43:38;7.10;;;2.80;;
73107;SDS011;61559;50.476;15.588;2023-08-01T03:46:09;5.50;;;2.90;;
73107;SDS011;61559;50.476;15.588;2023-08-01T03:48:41;5.00;;;2.60;;
73107;SDS011;61559;50.476;15.588;2023-08-01T03:51:12;7.70;;;2.90;;
73107;SDS011;61559;50.476;15.588;2023-08-01T03:53:44;10.90;;;3.10;;
73107;SDS011;61559;50.476;15.588;2023-08-01T03:56:30;6.40;;;3.60;;
73107;SDS011;61559;50.476;15.588;2023-08-01T03:59:01;6.10;;;2.90;;
73107;SDS011;61559;50.476;15.588;2023-08-01T04:01:33;6.60;;;3.20;;
73107;SDS011;61559;50.476;15.588;2023-08-01T04:04:04;5.00;;;2.80;;
73107;SDS011;61559;50.476;15.588;2023-08-01T04:06:36;4.50;;;2.70;;
73107;SDS011;61559;50.476;15.588;2023-08-01T04:09:08;4.30;;;2.80;;
73107;SDS011;61559;50.476;15.588;2023-08-01T04:11:39;4.40;;;2.60;;
73107;SDS011;61559;50.476;15.588;2023-08-01T04:14:10;6.90;;;2.90;;
73107;SDS011;61559;50.476;15.588;2023-08-01T04:16:41;5.80;;;3.00;;
73107;SDS011;61559;50.476;15.588;2023-08-01T04:19:12;5.40;;;2.80;;
73107;SDS011;61559;50.476;15.588;2023-08-01T04:21:46;7.60;;;3.80;;
73107;SDS011;61559;50.476;15.588;2023-08-01T04:24:17;5.50;;;3.20;;
73107;SDS011;61559;50.476;15.588;2023-08-01T04:26:48;6.90;;;3.00;;
73107;SDS011;61559;50.476;15.588;2023-08-01T04:29:19;6.10;;;3.40;;
73107;SDS011;61559;50.476;15.588;2023-08-01T04:31:50;4.50;;;2.40;;
73107;SDS011;61559;50.476;15.588;2023-08-01T04:34:22;4.80;;;2.70;;
73107;SDS011;61559;50.476;15.588;2023-08-01T04:36:53;4.80;;;2.50;;
73107;SDS011;61559;50.476;15.588;2023-08-01T04:39:24;5.10;;;3.20;;
73107;SDS011;61559;50.476;15.588;2023-08-01T04:41:56;5.70;;;3.30;;
73107;SDS011;61559;50.476;15.588;2023-08-01T04:44:27;5.80;;;3.10;;
73107;SDS011;61559;50.476;15.588;2023-08-01T04:46:58;5.10;;;3.20;;
73107;SDS011;61559;50.476;15.588;2023-08-01T04:49:29;4.70;;;3.40;;
73107;SDS011;61559;50.476;15.588;2023-08-01T04:52:00;5.90;;;3.20;;
73107;SDS011;61559;50.476;15.588;2023-08-01T04:54:35;7.50;;;3.20;;
73107;SDS011;61559;50.476;15.588;2023-08-01T04:57:06;5.30;;;3.40;;
73107;SDS011;61559;50.476;15.588;2023-08-01T04:59:37;4.60;;;3.00;;
73107;SDS011;61559;50.476;15.588;2023-08-01T05:02:08;5.10;;;3.10;;
73107;SDS011;61559;50.476;15.588;2023-08-01T05:04:40;5.60;;;3.10;;
73107;SDS011;61559;50.476;15.588;2023-08-01T05:07:11;5.00;;;3.00;;
73107;SDS011;61559;50.476;15.588;2023-08-01T05:09:42;4.60;;;3.10;;
73107;SDS011;61559;50.476;15.588;2023-08-01T05:12:13;9.90;;;3.30;;
73107;SDS011;61559;50.476;15.588;2023-08-01T05:14:44;7.00;;;3.00;;
73107;SDS011;61559;50.476;15.588;2023-08-01T05:17:16;4.70;;;3.10;;
73107;SDS011;61559;50.476;15.588;2023-08-01T05:19:47;5.00;;;3.40;;
73107;SDS011;61559;50.476;15.588;2023-08-01T05:22:18;5.20;;;3.10;;
73107;SDS011;61559;50.476;15.588;2023-08-01T05:24:49;5.10;;;3.20;;
73107;SDS011;61559;50.476;15.588;2023-08-01T05:27:21;3.70;;;2.80;;
73107;SDS011;61559;50.476;15.588;2023-08-01T05:29:52;5.20;;;2.70;;
73107;SDS011;61559;50.476;15.588;2023-08-01T05:32:23;5.10;;;3.00;;
73107;SDS011;61559;50.476;15.588;2023-08-01T05:34:54;4.90;;;3.10;;
73107;SDS011;61559;50.476;15.588;2023-08-01T05:37:26;4.90;;;2.90;;
73107;SDS011;61559;50.476;15.588;2023-08-01T05:39:57;4.90;;;2.80;;
73107;SDS011;61559;50.476;15.588;2023-08-01T05:42:30;4.30;;;3.60;;
73107;SDS011;61559;50.476;15.588;2023-08-01T05:45:01;5.90;;;3.50;;
73107;SDS011;61559;50.476;15.588;2023-08-01T05:47:33;4.80;;;2.80;;
73107;SDS011;61559;50.476;15.588;2023-08-01T05:50:05;5.20;;;3.30;;
73107;SDS011;61559;50.476;15.588;2023-08-01T05:52:37;5.00;;;3.10;;
73107;SDS011;61559;50.476;15.588;2023-08-01T05:55:08;7.40;;;3.00;;
73107;SDS011;61559;50.476;15.588;2023-08-01T05:57:40;7.80;;;3.20;;
73107;SDS011;61559;50.476;15.588;2023-08-01T06:00:12;4.00;;;3.00;;
73107;SDS011;61559;50.476;15.588;2023-08-01T06:02:44;5.80;;;2.40;;
73107;SDS011;61559;50.476;15.588;2023-08-01T06:05:16;4.20;;;2.80;;
73107;SDS011;61559;50.476;15.588;2023-08-01T06:07:47;5.20;;;3.00;;
73107;SDS011;61559;50.476;15.588;2023-08-01T06:10:19;4.70;;;3.30;;
73107;SDS011;61559;50.476;15.588;2023-08-01T06:12:51;5.20;;;2.60;;
73107;SDS011;61559;50.476;15.588;2023-08-01T06:15:21;5.50;;;3.10;;
73107;SDS011;61559;50.476;15.588;2023-08-01T06:17:52;5.30;;;3.00;;
73107;SDS011;61559;50.476;15.588;2023-08-01T06:20:24;8.40;;;3.30;;
73107;SDS011;61559;50.476;15.588;2023-08-01T06:22:55;6.30;;;3.40;;
73107;SDS011;61559;50.476;15.588;2023-08-01T06:25:26;4.20;;;2.70;;
73107;SDS011;61559;50.476;15.588;2023-08-01T06:27:57;5.00;;;3.30;;
73107;SDS011;61559;50.476;15.588;2023-08-01T06:30:28;5.00;;;2.90;;
73107;SDS011;61559;50.476;15.588;2023-08-01T06:33:00;5.60;;;3.20;;
73107;SDS011;61559;50.476;15.588;2023-08-01T06:35:34;6.00;;;3.10;;
73107;SDS011;61559;50.476;15.588;2023-08-01T06:38:05;5.70;;;3.30;;
73107;SDS011;61559;50.476;15.588;2023-08-01T06:40:37;4.90;;;3.20;;
73107;SDS011;61559;50.476;15.588;2023-08-01T06:43:08;6.40;;;3.40;;
73107;SDS011;61559;50.476;15.588;2023-08-01T06:45:39;4.90;;;2.70;;
73107;SDS011;61559;50.476;15.588;2023-08-01T06:48:10;7.30;;;3.30;;
73107;SDS011;61559;50.476;15.588;2023-08-01T06:50:41;5.80;;;3.10;;
73107;SDS011;61559;50.476;15.588;2023-08-01T06:53:12;5.60;;;2.90;;
73107;SDS011;61559;50.476;15.588;2023-08-01T06:55:43;8.20;;;3.30;;
73107;SDS011;61559;50.476;15.588;2023-08-01T06:58:14;6.40;;;3.10;;
73107;SDS011;61559;50.476;15.588;2023-08-01T07:00:46;5.80;;;3.20;;
73107;SDS011;61559;50.476;15.588;2023-08-01T07:03:17;4.70;;;2.90;;
73107;SDS011;61559;50.476;15.588;2023-08-01T07:05:48;6.00;;;2.80;;
73107;SDS011;61559;50.476;15.588;2023-08-01T07:08:20;4.60;;;2.90;;
73107;SDS011;61559;50.476;15.588;2023-08-01T07:10:51;6.50;;;3.10;;
73107;SDS011;61559;50.476;15.588;2023-08-01T07:13:22;4.30;;;3.10;;
73107;SDS011;61559;50.476;15.588;2023-08-01T07:15:54;6.00;;;2.70;;
73107;SDS011;61559;50.476;15.588;2023-08-01T07:18:25;4.60;;;2.80;;
73107;SDS011;61559;50.476;15.588;2023-08-01T07:21:03;5.90;;;3.10;;
73107;SDS011;61559;50.476;15.588;2023-08-01T07:23:34;7.10;;;3.10;;
73107;SDS011;61559;50.476;15.588;2023-08-01T07:26:06;5.30;;;2.90;;
73107;SDS011;61559;50.476;15.588;2023-08-01T07:28:37;5.40;;;3.30;;
73107;SDS011;61559;50.476;15.588;2023-08-01T07:31:09;5.40;;;2.70;;
73107;SDS011;61559;50.476;15.588;2023-08-01T07:33:40;4.50;;;2.70;;
73107;SDS011;61559;50.476;15.588;2023-08-01T07:36:12;6.50;;;3.80;;
73107;SDS011;61559;50.476;15.588;2023-08-01T07:38:43;7.80;;;3.20;;
73107;SDS011;61559;50.476;15.588;2023-08-01T07:41:14;4.70;;;3.00;;
73107;SDS011;61559;50.476;15.588;2023-08-01T07:43:45;5.80;;;2.70;;
73107;SDS011;61559;50.476;15.588;2023-08-01T07:46:17;5.80;;;3.20;;
73107;SDS011;61559;50.476;15.588;2023-08-01T07:48:48;6.40;;;3.30;;
73107;SDS011;61559;50.476;15.588;2023-08-01T07:51:22;4.50;;;2.80;;
73107;SDS011;61559;50.476;15.588;2023-08-01T07:53:53;6.80;;;3.50;;
73107;SDS011;61559;50.476;15.588;2023-08-01T07:56:24;5.80;;;3.20;;
73107;SDS011;61559;50.476;15.588;2023-08-01T07:58:56;6.20;;;3.30;;
73107;SDS011;61559;50.476;15.588;2023-08-01T08:01:27;6.90;;;3.30;;
73107;SDS011;61559;50.476;15.588;2023-08-01T08:03:58;4.30;;;2.90;;
73107;SDS011;61559;50.476;15.588;2023-08-01T08:06:30;6.30;;;3.20;;
73107;SDS011;61559;50.476;15.588;2023-08-01T08:09:02;4.90;;;3.40;;
73107;SDS011;61559;50.476;15.588;2023-08-01T08:11:33;5.40;;;3.60;;
73107;SDS011;61559;50.476;15.588;2023-08-01T08:14:04;5.90;;;3.20;;
73107;SDS011;61559;50.476;15.588;2023-08-01T08:16:36;4.60;;;2.90;;
73107;SDS011;61559;50.476;15.588;2023-08-01T08:19:09;8.80;;;3.50;;
73107;SDS011;61559;50.476;15.588;2023-08-01T08:21:39;6.40;;;3.30;;
73107;SDS011;61559;50.476;15.588;2023-08-01T08:24:11;5.90;;;3.60;;
73107;SDS011;61559;50.476;15.588;2023-08-01T08:26:42;8.50;;;3.70;;
73107;SDS011;61559;50.476;15.588;2023-08-01T08:29:13;6.00;;;3.50;;
73107;SDS011;61559;50.476;15.588;2023-08-01T08:31:44;5.50;;;3.10;;
73107;SDS011;61559;50.476;15.588;2023-08-01T08:34:15;5.20;;;3.00;;
73107;SDS011;61559;50.476;15.588;2023-08-01T08:36:47;4.10;;;2.80;;
73107;SDS011;61559;50.476;15.588;2023-08-01T08:39:19;6.50;;;3.50;;
73107;SDS011;61559;50.476;15.588;2023-08-01T08:41:50;4.00;;;2.90;;
73107;SDS011;61559;50.476;15.588;2023-08-01T08:44:22;6.70;;;3.40;;
73107;SDS011;61559;50.476;15.588;2023-08-01T08:46:54;6.30;;;3.90;;
73107;SDS011;61559;50.476;15.588;2023-08-01T08:49:29;5.60;;;3.20;;
73107;SDS011;61559;50.476;15.588;2023-08-01T08:52:03;6.80;;;3.80;;
73107;SDS011;61559;50.476;15.588;2023-08-01T08:54:35;5.50;;;2.80;;
73107;SDS011;61559;50.476;15.588;2023-08-01T08:57:07;5.50;;;3.10;;
73107;SDS011;61559;50.476;15.588;2023-08-01T08:59:38;5.70;;;3.50;;
73107;SDS011;61559;50.476;15.588;2023-08-01T09:02:10;6.20;;;3.40;;
73107;SDS011;61559;50.476;15.588;2023-08-01T09:04:44;8.00;;;3.70;;
73107;SDS011;61559;50.476;15.588;2023-08-01T09:07:15;7.00;;;3.80;;
73107;SDS011;61559;50.476;15.588;2023-08-01T09:09:49;5.90;;;3.30;;
73107;SDS011;61559;50.476;15.588;2023-08-01T09:12:20;6.60;;;3.50;;
73107;SDS011;61559;50.476;15.588;2023-08-01T09:14:52;9.40;;;3.90;;
73107;SDS011;61559;50.476;15.588;2023-08-01T09:17:28;5.80;;;3.50;;
73107;SDS011;61559;50.476;15.588;2023-08-01T09:20:04;6.20;;;3.20;;
73107;SDS011;61559;50.476;15.588;2023-08-01T09:22:43;5.70;;;4.00;;
73107;SDS011;61559;50.476;15.588;2023-08-01T09:25:15;4.90;;;3.20;;
73107;SDS011;61559;50.476;15.588;2023-08-01T09:27:46;6.50;;;3.30;;
73107;SDS011;61559;50.476;15.588;2023-08-01T09:30:17;5.00;;;3.50;;
73107;SDS011;61559;50.476;15.588;2023-08-01T09:32:54;7.80;;;3.80;;
73107;SDS011;61559;50.476;15.588;2023-08-01T09:35:26;5.80;;;3.70;;
73107;SDS011;61559;50.476;15.588;2023-08-01T09:38:07;6.80;;;3.90;;
73107;SDS011;61559;50.476;15.588;2023-08-01T09:40:39;6.00;;;3.70;;
73107;SDS011;61559;50.476;15.588;2023-08-01T09:43:10;6.00;;;3.90;;
73107;SDS011;61559;50.476;15.588;2023-08-01T09:45:52;7.10;;;3.80;;
73107;SDS011;61559;50.476;15.588;2023-08-01T09:48:26;6.90;;;3.70;;
73107;SDS011;61559;50.476;15.588;2023-08-01T09:51:09;6.50;;;3.90;;
73107;SDS011;61559;50.476;15.588;2023-08-01T09:53:47;5.50;;;4.00;;
73107;SDS011;61559;50.476;15.588;2023-08-01T09:56:21;6.00;;;3.90;;
73107;SDS011;61559;50.476;15.588;2023-08-01T09:58:54;6.20;;;3.60;;
73107;SDS011;61559;50.476;15.588;2023-08-01T10:01:29;6.00;;;3.70;;
73107;SDS011;61559;50.476;15.588;2023-08-01T10:04:04;6.90;;;4.00;;
73107;SDS011;61559;50.476;15.588;2023-08-01T10:06:36;5.70;;;3.70;;
73107;SDS011;61559;50.476;15.588;2023-08-01T10:09:12;6.40;;;4.00;;
73107;SDS011;61559;50.476;15.588;2023-08-01T10:11:45;5.20;;;3.70;;
73107;SDS011;61559;50.476;15.588;2023-08-01T10:14:20;6.90;;;4.20;;
73107;SDS011;61559;50.476;15.588;2023-08-01T10:16:52;6.40;;;4.00;;
73107;SDS011;61559;50.476;15.588;2023-08-01T10:19:23;6.80;;;3.70;;
73107;SDS011;61559;50.476;15.588;2023-08-01T10:21:55;6.90;;;4.20;;
73107;SDS011;61559;50.476;15.588;2023-08-01T10:24:27;7.60;;;4.00;;
73107;SDS011;61559;50.476;15.588;2023-08-01T10:26:59;7.20;;;4.00;;
73107;SDS011;61559;50.476;15.588;2023-08-01T10:29:42;8.00;;;3.20;;
73107;SDS011;61559;50.476;15.588;2023-08-01T10:32:14;6.10;;;3.20;;
73107;SDS011;61559;50.476;15.588;2023-08-01T10:34:51;5.60;;;3.40;;
73107;SDS011;61559;50.476;15.588;2023-08-01T10:37:22;7.90;;;3.70;;
73107;SDS011;61559;50.476;15.588;2023-08-01T10:39:58;9.00;;;4.40;;
73107;SDS011;61559;50.476;15.588;2023-08-01T10:42:38;6.70;;;3.60;;
73107;SDS011;61559;50.476;15.588;2023-08-01T10:45:21;6.50;;;3.30;;
73107;SDS011;61559;50.476;15.588;2023-08-01T10:48:07;6.30;;;3.30;;
73107;SDS011;61559;50.476;15.588;2023-08-01T10:50:39;6.50;;;3.50;;
73107;SDS011;61559;50.476;15.588;2023-08-01T10:53:10;4.80;;;3.40;;
73107;SDS011;61559;50.476;15.588;2023-08-01T10:55:43;5.30;;;3.20;;
73107;SDS011;61559;50.476;15.588;2023-08-01T10:58:16;7.50;;;4.00;;
73107;SDS011;61559;50.476;15.588;2023-08-01T11:00:56;5.70;;;3.30;;
73107;SDS011;61559;50.476;15.588;2023-08-01T11:03:36;4.70;;;2.90;;
73107;SDS011;61559;50.476;15.588;2023-08-01T11:06:08;7.30;;;3.70;;
73107;SDS011;61559;50.476;15.588;2023-08-01T11:08:40;4.80;;;2.80;;
73107;SDS011;61559;50.476;15.588;2023-08-01T11:11:12;5.00;;;3.30;;
73107;SDS011;61559;50.476;15.588;2023-08-01T11:13:50;5.60;;;2.70;;
73107;SDS011;61559;50.476;15.588;2023-08-01T11:16:24;4.50;;;3.00;;
73107;SDS011;61559;50.476;15.588;2023-08-01T11:18:56;4.50;;;2.60;;
73107;SDS011;61559;50.476;15.588;2023-08-01T11:21:27;4.80;;;3.00;;
73107;SDS011;61559;50.476;15.588;2023-08-01T11:23:58;4.50;;;2.70;;
73107;SDS011;61559;50.476;15.588;2023-08-01T11:26:35;5.90;;;2.80;;
73107;SDS011;61559;50.476;15.588;2023-08-01T11:29:10;5.90;;;2.80;;
73107;SDS011;61559;50.476;15.588;2023-08-01T11:31:51;4.50;;;2.60;;
73107;SDS011;61559;50.476;15.588;2023-08-01T11:34:23;4.40;;;2.30;;
73107;SDS011;61559;50.476;15.588;2023-08-01T11:36:56;3.10;;;2.10;;
73107;SDS011;61559;50.476;15.588;2023-08-01T11:39:28;5.50;;;2.70;;
73107;SDS011;61559;50.476;15.588;2023-08-01T11:42:00;5.70;;;3.00;;
73107;SDS011;61559;50.476;15.588;2023-08-01T11:44:32;5.90;;;2.30;;
73107;SDS011;61559;50.476;15.588;2023-08-01T11:47:03;3.60;;;2.60;;
73107;SDS011;61559;50.476;15.588;2023-08-01T11:49:45;4.10;;;2.40;;
73107;SDS011;61559;50.476;15.588;2023-08-01T11:52:24;4.60;;;2.70;;
73107;SDS011;61559;50.476;15.588;2023-08-01T11:54:56;2.60;;;2.00;;
73107;SDS011;61559;50.476;15.588;2023-08-01T11:57:29;3.70;;;2.30;;
73107;SDS011;61559;50.476;15.588;2023-08-01T12:00:00;5.30;;;2.50;;
73107;SDS011;61559;50.476;15.588;2023-08-01T12:02:33;3.10;;;2.20;;
73107;SDS011;61559;50.476;15.588;2023-08-01T12:05:05;5.70;;;2.40;;
73107;SDS011;61559;50.476;15.588;2023-08-01T12:07:38;3.00;;;2.00;;
73107;SDS011;61559;50.476;15.588;2023-08-01T12:10:09;4.20;;;2.20;;
73107;SDS011;61559;50.476;15.588;2023-08-01T12:12:44;3.80;;;2.00;;
73107;SDS011;61559;50.476;15.588;2023-08-01T12:15:16;2.80;;;1.80;;
73107;SDS011;61559;50.476;15.588;2023-08-01T12:17:47;4.40;;;1.90;;
73107;SDS011;61559;50.476;15.588;2023-08-01T12:20:18;2.50;;;2.00;;
73107;SDS011;61559;50.476;15.588;2023-08-01T12:22:49;2.30;;;1.60;;
73107;SDS011;61559;50.476;15.588;2023-08-01T12:25:20;3.90;;;2.20;;
73107;SDS011;61559;50.476;15.588;2023-08-01T12:27:51;2.70;;;1.70;;
73107;SDS011;61559;50.476;15.588;2023-08-01T12:30:23;2.90;;;1.70;;
73107;SDS011;61559;50.476;15.588;2023-08-01T12:32:54;2.60;;;1.50;;
73107;SDS011;61559;50.476;15.588;2023-08-01T12:35:25;2.20;;;1.70;;
73107;SDS011;61559;50.476;15.588;2023-08-01T12:37:57;9.60;;;1.50;;
73107;SDS011;61559;50.476;15.588;2023-08-01T12:40:28;2.60;;;1.80;;
73107;SDS011;61559;50.476;15.588;2023-08-01T12:42:59;2.40;;;1.80;;
73107;SDS011;61559;50.476;15.588;2023-08-01T12:45:31;2.00;;;1.40;;
73107;SDS011;61559;50.476;15.588;2023-08-01T12:48:02;2.90;;;1.60;;
73107;SDS011;61559;50.476;15.588;2023-08-01T12:50:33;2.40;;;1.60;;
73107;SDS011;61559;50.476;15.588;2023-08-01T12:53:04;4.70;;;2.10;;
73107;SDS011;61559;50.476;15.588;2023-08-01T12:55:35;2.10;;;1.50;;
73107;SDS011;61559;50.476;15.588;2023-08-01T12:58:07;2.10;;;1.40;;
73107;SDS011;61559;50.476;15.588;2023-08-01T13:00:38;5.00;;;1.80;;
73107;SDS011;61559;50.476;15.588;2023-08-01T13:03:10;2.20;;;1.40;;
73107;SDS011;61559;50.476;15.588;2023-08-01T13:05:42;2.30;;;1.50;;
73107;SDS011;61559;50.476;15.588;2023-08-01T13:08:13;2.20;;;1.30;;
73107;SDS011;61559;50.476;15.588;2023-08-01T13:10:45;2.30;;;1.50;;
73107;SDS011;61559;50.476;15.588;2023-08-01T13:13:18;2.40;;;1.30;;
73107;SDS011;61559;50.476;15.588;2023-08-01T13:15:49;2.20;;;1.40;;
73107;SDS011;61559;50.476;15.588;2023-08-01T13:18:20;2.80;;;1.30;;
73107;SDS011;61559;50.476;15.588;2023-08-01T13:20:51;1.90;;;1.20;;
73107;SDS011;61559;50.476;15.588;2023-08-01T13:23:22;2.00;;;1.50;;
73107;SDS011;61559;50.476;15.588;2023-08-01T13:25:53;2.20;;;1.60;;
73107;SDS011;61559;50.476;15.588;2023-08-01T13:28:26;3.50;;;1.30;;
73107;SDS011;61559;50.476;15.588;2023-08-01T13:30:57;2.40;;;1.50;;
73107;SDS011;61559;50.476;15.588;2023-08-01T13:33:29;2.30;;;1.70;;
73107;SDS011;61559;50.476;15.588;2023-08-01T13:36:00;2.50;;;1.50;;
73107;SDS011;61559;50.476;15.588;2023-08-01T13:38:31;1.20;;;1.10;;
73107;SDS011;61559;50.476;15.588;2023-08-01T13:41:03;3.30;;;1.30;;
73107;SDS011;61559;50.476;15.588;2023-08-01T13:43:34;2.00;;;1.20;;
73107;SDS011;61559;50.476;15.588;2023-08-01T13:46:09;1.90;;;1.50;;
73107;SDS011;61559;50.476;15.588;2023-08-01T13:48:56;2.50;;;1.10;;
73107;SDS011;61559;50.476;15.588;2023-08-01T13:51:27;1.40;;;1.30;;
73107;SDS011;61559;50.476;15.588;2023-08-01T13:54:00;2.50;;;1.10;;
73107;SDS011;61559;50.476;15.588;2023-08-01T13:56:31;2.80;;;1.10;;
73107;SDS011;61559;50.476;15.588;2023-08-01T13:59:06;1.40;;;1.20;;
73107;SDS011;61559;50.476;15.588;2023-08-01T14:01:37;2.50;;;1.30;;
73107;SDS011;61559;50.476;15.588;2023-08-01T14:04:08;2.10;;;1.20;;
73107;SDS011;61559;50.476;15.588;2023-08-01T14:06:41;2.50;;;1.00;;
73107;SDS011;61559;50.476;15.588;2023-08-01T14:09:13;2.30;;;1.20;;
73107;SDS011;61559;50.476;15.588;2023-08-01T14:11:45;1.30;;;1.20;;
73107;SDS011;61559;50.476;15.588;2023-08-01T14:14:16;1.80;;;1.10;;
73107;SDS011;61559;50.476;15.588;2023-08-01T14:16:47;2.40;;;1.10;;
73107;SDS011;61559;50.476;15.588;2023-08-01T14:19:18;1.40;;;1.00;;
73107;SDS011;61559;50.476;15.588;2023-08-01T14:21:49;2.60;;;1.10;;
73107;SDS011;61559;50.476;15.588;2023-08-01T14:24:20;1.90;;;1.70;;
73107;SDS011;61559;50.476;15.588;2023-08-01T14:26:51;2.00;;;1.50;;
73107;SDS011;61559;50.476;15.588;2023-08-01T14:29:22;3.30;;;1.80;;
73107;SDS011;61559;50.476;15.588;2023-08-01T14:31:54;4.00;;;2.10;;
73107;SDS011;61559;50.476;15.588;2023-08-01T14:34:25;2.60;;;1.60;;
73107;SDS011;61559;50.476;15.588;2023-08-01T14:36:56;2.20;;;1.70;;
73107;SDS011;61559;50.476;15.588;2023-08-01T14:39:27;2.80;;;1.50;;
73107;SDS011;61559;50.476;15.588;2023-08-01T14:41:58;2.10;;;1.10;;
73107;SDS011;61559;50.476;15.588;2023-08-01T14:44:32;3.00;;;1.00;;
73107;SDS011;61559;50.476;15.588;2023-08-01T14:47:03;2.60;;;0.90;;
73107;SDS011;61559;50.476;15.588;2023-08-01T14:49:35;2.00;;;1.20;;
73107;SDS011;61559;50.476;15.588;2023-08-01T14:52:07;1.70;;;1.10;;
73107;SDS011;61559;50.476;15.588;2023-08-01T14:54:38;1.50;;;1.10;;
73107;SDS011;61559;50.476;15.588;2023-08-01T14:57:09;1.50;;;0.90;;
73107;SDS011;61559;50.476;15.588;2023-08-01T14:59:40;2.80;;;1.10;;
73107;SDS011;61559;50.476;15.588;2023-08-01T15:02:11;1.30;;;0.80;;